createdAt,value
2018-09-15T00:00:54.844Z,73.90
2018-09-15T00:03:23.280Z,74.06
2018-09-15T00:05:51.467Z,74.18
2018-09-15T00:08:19.623Z,74.41
2018-09-15T00:10:48.167Z,73.84
2018-09-15T00:13:16.977Z,74.10
2018-09-15T00:15:45.205Z,73.86
2018-09-15T00:18:14.904Z,73.92
2018-09-15T00:20:43.041Z,74.59
2018-09-15T00:23:11.978Z,74.35
2018-09-15T00:25:40.965Z,75.06
2018-09-15T00:28:09.831Z,74.63
2018-09-15T00:30:37.953Z,74.50
2018-09-15T00:33:06.175Z,74.76
2018-09-15T00:35:34.346Z,74.96
2018-09-15T00:38:02.509Z,75.51
2018-09-15T00:40:30.626Z,75.81
2018-09-15T00:42:58.783Z,75.67
2018-09-15T00:45:26.993Z,75.86
2018-09-15T00:47:55.107Z,75.36
2018-09-15T00:50:23.279Z,75.24
2018-09-15T00:52:51.427Z,75.25
2018-09-15T00:55:19.658Z,75.20
2018-09-15T00:57:48.498Z,75.44
2018-09-15T01:00:16.657Z,76.14
2018-09-15T01:02:44.857Z,75.25
2018-09-15T01:05:12.990Z,75.20
2018-09-15T01:07:41.112Z,75.60
2018-09-15T01:10:09.235Z,75.38
2018-09-15T01:12:37.428Z,75.75
2018-09-15T01:15:05.598Z,75.60
2018-09-15T01:17:33.747Z,75.72
2018-09-15T01:20:01.982Z,76.47
2018-09-15T01:22:30.051Z,76.04
2018-09-15T01:24:58.176Z,75.93
2018-09-15T01:27:33.254Z,76.40
2018-09-15T01:30:01.492Z,76.68
2018-09-15T01:32:29.718Z,76.55
2018-09-15T01:34:57.918Z,77.03
2018-09-15T01:37:26.059Z,76.68
2018-09-15T01:39:54.366Z,77.63
2018-09-15T01:42:22.532Z,77.41
2018-09-15T01:44:50.886Z,77.77
2018-09-15T01:47:19.079Z,76.97
2018-09-15T01:49:47.221Z,77.76
2018-09-15T01:52:15.412Z,77.43
2018-09-15T01:54:43.747Z,77.12
2018-09-15T01:57:12.045Z,77.41
2018-09-15T01:59:40.338Z,77.83
2018-09-15T02:02:08.489Z,77.64
2018-09-15T02:04:36.621Z,77.56
2018-09-15T02:07:04.833Z,78.36
2018-09-15T02:09:32.973Z,78.44
2018-09-15T02:12:01.110Z,78.55
2018-09-15T02:14:29.270Z,78.89
2018-09-15T02:16:57.457Z,78.48
2018-09-15T02:19:25.604Z,79.13
2018-09-15T02:21:53.723Z,79.05
2018-09-15T02:24:22.107Z,79.10
2018-09-15T02:26:50.215Z,79.12
2018-09-15T02:29:18.407Z,78.41
2018-09-15T02:31:46.561Z,78.47
2018-09-15T02:34:14.762Z,78.85
2018-09-15T02:36:43.039Z,79.00
2018-09-15T02:39:11.870Z,79.00
2018-09-15T02:41:40.103Z,78.97
2018-09-15T02:44:08.385Z,78.69
2018-09-15T02:46:36.532Z,78.93
2018-09-15T02:49:04.724Z,79.00
2018-09-15T02:51:33.005Z,79.85
2018-09-15T02:54:01.235Z,80.03
2018-09-15T02:56:29.373Z,79.96
2018-09-15T02:58:57.522Z,80.07
2018-09-15T03:01:25.959Z,79.72
2018-09-15T03:03:54.118Z,80.12
2018-09-15T03:06:22.260Z,80.33
2018-09-15T03:08:50.946Z,79.93
2018-09-15T03:11:19.587Z,80.01
2018-09-15T03:13:47.910Z,80.22
2018-09-15T03:16:16.117Z,80.21
2018-09-15T03:18:44.285Z,80.53
2018-09-15T03:21:12.430Z,80.49
2018-09-15T03:23:40.709Z,80.32
2018-09-15T03:26:08.995Z,80.38
2018-09-15T03:28:37.157Z,80.07
2018-09-15T03:31:05.408Z,79.72
2018-09-15T03:33:33.697Z,79.72
2018-09-15T03:36:01.918Z,80.23
2018-09-15T03:38:30.108Z,79.61
2018-09-15T03:40:58.370Z,80.07
2018-09-15T03:43:26.601Z,79.75
2018-09-15T03:45:54.842Z,79.42
2018-09-15T03:48:23.226Z,79.38
2018-09-15T03:50:51.369Z,79.28
2018-09-15T03:53:19.649Z,79.29
2018-09-15T03:55:47.890Z,78.84
2018-09-15T03:58:16.083Z,78.67
2018-09-15T04:00:44.286Z,78.54
2018-09-15T04:03:12.615Z,78.61
2018-09-15T04:05:40.954Z,78.59
2018-09-15T04:08:09.116Z,78.86
2018-09-15T04:10:37.271Z,78.69
2018-09-15T04:13:05.548Z,78.53
2018-09-15T04:15:33.719Z,78.04
2018-09-15T04:18:01.917Z,78.21
2018-09-15T04:20:30.062Z,77.97
2018-09-15T04:22:58.757Z,77.55
2018-09-15T04:25:27.077Z,76.33
2018-09-15T04:27:55.235Z,75.68
2018-09-15T04:30:23.491Z,75.96
2018-09-15T04:32:51.801Z,75.52
2018-09-15T04:35:20.059Z,74.22
2018-09-15T04:37:48.180Z,74.90
2018-09-15T04:40:16.533Z,74.29
2018-09-15T04:42:44.699Z,73.69
2018-09-15T04:45:12.905Z,73.86
2018-09-15T04:47:41.073Z,73.49
2018-09-15T04:50:09.413Z,72.13
2018-09-15T04:52:37.681Z,72.57
2018-09-15T04:55:05.835Z,72.23
2018-09-15T04:57:34.005Z,72.17
2018-09-15T05:00:02.183Z,71.93
2018-09-15T05:02:30.429Z,71.64
2018-09-15T05:04:58.629Z,70.65
2018-09-15T05:07:26.778Z,70.48
2018-09-15T05:09:54.903Z,70.22
2018-09-15T05:12:23.080Z,70.02
2018-09-15T05:14:51.331Z,68.79
2018-09-15T05:17:19.837Z,69.13
2018-09-15T05:19:48.098Z,68.73
2018-09-15T05:22:16.257Z,68.73
2018-09-15T05:24:44.411Z,68.44
2018-09-15T05:27:12.619Z,68.54
2018-09-15T05:29:40.780Z,68.32
2018-09-15T05:32:08.933Z,68.56
2018-09-15T05:34:37.237Z,68.08
2018-09-15T05:37:05.425Z,67.91
2018-09-15T05:39:33.589Z,67.46
2018-09-15T05:42:01.777Z,67.07
2018-09-15T05:44:29.911Z,66.75
2018-09-15T05:46:58.203Z,66.53
2018-09-15T05:49:26.567Z,66.18
2018-09-15T05:51:54.751Z,65.91
2018-09-15T05:54:23.043Z,66.09
2018-09-15T05:56:51.256Z,65.74
2018-09-15T05:59:19.419Z,66.15
2018-09-15T06:01:47.634Z,65.50
2018-09-15T06:04:15.859Z,65.45
2018-09-15T06:06:45.316Z,64.66
2018-09-15T06:09:13.387Z,64.94
2018-09-15T06:11:42.341Z,65.06
2018-09-15T06:14:10.513Z,64.78
2018-09-15T06:16:38.654Z,64.87
2018-09-15T06:19:06.792Z,65.02
2018-09-15T06:21:34.968Z,64.04
2018-09-15T06:24:03.965Z,63.86
2018-09-15T06:26:32.577Z,64.02
2018-09-15T06:29:00.760Z,64.14
2018-09-15T06:31:28.930Z,63.93
2018-09-15T06:33:57.311Z,64.64
2018-09-15T06:36:25.460Z,65.12
2018-09-15T06:38:53.999Z,64.79
2018-09-15T06:41:22.411Z,64.01
2018-09-15T06:43:50.587Z,64.27
2018-09-15T06:46:18.849Z,64.07
2018-09-15T06:48:47.037Z,64.02
2018-09-15T06:51:15.362Z,64.11
2018-09-15T06:53:45.751Z,64.09
2018-09-15T06:56:13.921Z,63.91
2018-09-15T06:58:42.150Z,63.50
2018-09-15T07:01:10.291Z,63.42
2018-09-15T07:03:38.485Z,63.10
2018-09-15T07:06:06.660Z,62.70
2018-09-15T07:08:34.839Z,62.55
2018-09-15T07:11:02.958Z,62.35
2018-09-15T07:13:31.127Z,62.64
2018-09-15T07:15:59.360Z,62.46
2018-09-15T07:18:28.152Z,61.67
2018-09-15T07:20:56.284Z,61.13
2018-09-15T07:23:24.565Z,61.54
2018-09-15T07:25:52.777Z,61.86
2018-09-15T07:28:21.009Z,61.54
2018-09-15T07:30:49.169Z,61.62
2018-09-15T07:33:17.305Z,61.53
2018-09-15T07:35:45.469Z,61.17
2018-09-15T07:38:13.717Z,61.10
2018-09-15T07:40:41.895Z,61.05
2018-09-15T07:43:10.049Z,60.63
2018-09-15T07:45:38.263Z,60.77
2018-09-15T07:48:07.074Z,60.83
2018-09-15T07:50:35.319Z,60.51
2018-09-15T07:53:03.695Z,59.94
2018-09-15T07:55:31.898Z,59.80
2018-09-15T07:58:00.693Z,59.23
2018-09-15T08:00:28.794Z,59.53
2018-09-15T08:02:56.981Z,58.93
2018-09-15T08:05:25.199Z,58.74
2018-09-15T08:07:54.038Z,58.44
2018-09-15T08:10:22.219Z,58.41
2018-09-15T08:12:50.393Z,58.22
2018-09-15T08:15:18.682Z,58.10
2018-09-15T08:17:47.851Z,58.17
2018-09-15T08:20:16.069Z,57.83
2018-09-15T08:22:44.273Z,57.81
2018-09-15T08:25:12.617Z,57.38
2018-09-15T08:27:40.915Z,57.68
2018-09-15T08:30:09.063Z,57.63
2018-09-15T08:32:37.403Z,57.44
2018-09-15T08:35:05.773Z,56.80
2018-09-15T08:37:34.447Z,56.31
2018-09-15T08:40:02.674Z,56.49
2018-09-15T08:42:30.953Z,56.34
2018-09-15T08:44:59.179Z,55.80
2018-09-15T08:47:27.379Z,56.01
2018-09-15T08:49:56.142Z,55.60
2018-09-15T08:52:24.408Z,54.75
2018-09-15T08:54:52.677Z,54.46
2018-09-15T08:57:21.098Z,54.21
2018-09-15T08:59:49.275Z,53.63
2018-09-15T09:02:17.467Z,53.39
2018-09-15T09:04:45.824Z,52.74
2018-09-15T09:07:14.173Z,52.54
2018-09-15T09:09:42.635Z,53.41
2018-09-15T09:12:10.877Z,53.06
2018-09-15T09:14:39.038Z,52.71
2018-09-15T09:17:07.357Z,53.43
2018-09-15T09:19:35.553Z,54.30
2018-09-15T09:22:03.822Z,54.86
2018-09-15T09:24:32.065Z,54.60
2018-09-15T09:27:00.688Z,54.38
2018-09-15T09:29:29.209Z,54.30
2018-09-15T09:31:57.403Z,54.24
2018-09-15T09:34:25.804Z,54.20
2018-09-15T09:36:53.968Z,53.41
2018-09-15T09:39:22.131Z,53.99
2018-09-15T09:41:50.307Z,53.26
2018-09-15T09:44:18.583Z,53.03
2018-09-15T09:46:46.883Z,52.76
2018-09-15T09:49:15.062Z,52.00
2018-09-15T09:51:43.295Z,51.80
2018-09-15T09:54:12.178Z,51.82
2018-09-15T09:56:48.710Z,51.58
2018-09-15T09:59:16.991Z,51.07
2018-09-15T10:01:50.526Z,51.66
2018-09-15T10:04:18.829Z,50.89
2018-09-15T10:06:47.365Z,51.13
2018-09-15T10:09:15.562Z,50.79
2018-09-15T10:11:43.739Z,51.38
2018-09-15T10:14:11.871Z,50.63
2018-09-15T10:16:40.251Z,50.23
2018-09-15T10:19:09.125Z,50.52
2018-09-15T10:21:37.310Z,50.42
2018-09-15T10:24:05.628Z,50.93
2018-09-15T10:26:33.937Z,49.92
2018-09-15T10:29:02.114Z,49.94
2018-09-15T10:31:30.392Z,50.30
2018-09-15T10:33:58.606Z,51.07
2018-09-15T10:36:26.949Z,50.95
2018-09-15T10:38:55.449Z,50.84
2018-09-15T10:41:23.807Z,50.70
2018-09-15T10:43:52.463Z,50.03
2018-09-15T10:46:20.607Z,49.09
2018-09-15T10:48:48.780Z,49.10
2018-09-15T10:51:17.113Z,48.28
2018-09-15T10:53:45.366Z,47.95
2018-09-15T10:56:13.534Z,49.50
2018-09-15T10:58:41.821Z,49.22
2018-09-15T11:01:09.982Z,49.18
2018-09-15T11:03:38.155Z,48.43
2018-09-15T11:06:06.327Z,48.51
2018-09-15T11:08:34.602Z,48.59
2018-09-15T11:11:02.908Z,48.21
2018-09-15T11:13:31.137Z,48.53
2018-09-15T11:15:59.852Z,48.96
2018-09-15T11:18:27.977Z,49.34
2018-09-15T11:20:56.264Z,49.72
2018-09-15T11:23:24.499Z,49.74
2018-09-15T11:25:52.796Z,49.25
2018-09-15T11:28:21.059Z,49.08
2018-09-15T11:30:49.230Z,48.77
2018-09-15T11:33:17.784Z,48.04
2018-09-15T11:35:46.145Z,48.08
2018-09-15T11:38:14.350Z,47.47
2018-09-15T11:40:42.652Z,47.69
2018-09-15T11:43:10.969Z,47.65
2018-09-15T11:45:39.209Z,46.90
2018-09-15T11:48:07.500Z,46.55
2018-09-15T11:50:35.688Z,47.42
2018-09-15T11:53:03.976Z,46.63
2018-09-15T11:55:32.354Z,45.98
2018-09-15T11:58:00.550Z,45.57
2018-09-15T12:00:31.547Z,45.72
2018-09-15T12:03:00.100Z,46.08
2018-09-15T12:05:28.262Z,46.16
2018-09-15T12:07:56.513Z,46.14
2018-09-15T12:10:24.672Z,46.06
2018-09-15T12:12:53.121Z,46.66
2018-09-15T12:15:22.000Z,46.71
2018-09-15T12:17:50.284Z,45.62
2018-09-15T12:20:18.781Z,45.93
2018-09-15T12:22:48.461Z,46.12
2018-09-15T12:25:17.501Z,46.69
2018-09-15T12:27:45.664Z,46.16
2018-09-15T12:30:13.822Z,45.80
2018-09-15T12:32:42.106Z,45.67
2018-09-15T12:35:10.475Z,44.73
2018-09-15T12:37:38.732Z,44.92
2018-09-15T12:40:06.987Z,43.83
2018-09-15T12:42:35.182Z,43.70
2018-09-15T12:45:03.574Z,43.01
2018-09-15T12:47:31.751Z,42.32
2018-09-15T12:50:06.616Z,42.32
2018-09-15T12:52:34.837Z,41.93
2018-09-15T12:55:03.259Z,42.25
2018-09-15T12:57:31.492Z,42.31
2018-09-15T12:59:59.826Z,41.54
2018-09-15T13:02:28.475Z,41.58
2018-09-15T13:04:56.860Z,42.20
2018-09-15T13:07:25.075Z,41.35
2018-09-15T13:09:53.802Z,41.39
2018-09-15T13:12:22.021Z,41.36
2018-09-15T13:14:50.272Z,41.73
2018-09-15T13:17:18.515Z,41.58
2018-09-15T13:19:46.693Z,41.72
2018-09-15T13:22:14.902Z,41.93
2018-09-15T13:24:43.980Z,42.33
2018-09-15T13:27:12.216Z,43.24
2018-09-15T13:29:40.710Z,43.25
2018-09-15T13:32:08.895Z,43.12
2018-09-15T13:34:37.266Z,43.39
2018-09-15T13:37:05.577Z,43.50
2018-09-15T13:39:34.079Z,43.04
2018-09-15T13:42:03.342Z,42.89
2018-09-15T13:44:32.222Z,42.85
2018-09-15T13:47:31.799Z,43.02
2018-09-15T13:50:13.338Z,42.96
2018-09-15T13:52:51.118Z,42.42
2018-09-15T13:55:27.678Z,42.34
2018-09-15T13:58:06.713Z,42.14
2018-09-15T14:00:42.253Z,41.93
2018-09-15T14:03:11.358Z,42.30
2018-09-15T14:05:47.520Z,42.09
2018-09-15T14:08:15.855Z,41.88
2018-09-15T14:10:44.164Z,42.02
2018-09-15T14:13:12.368Z,42.27
2018-09-15T14:15:40.806Z,41.64
2018-09-15T14:18:09.126Z,42.03
2018-09-15T14:20:37.478Z,42.45
2018-09-15T14:23:05.870Z,42.68
2018-09-15T14:25:34.180Z,42.53
2018-09-15T14:28:03.381Z,42.36
2018-09-15T14:30:31.634Z,43.25
2018-09-15T14:33:04.518Z,43.38
2018-09-15T14:35:47.934Z,43.83
2018-09-15T14:38:16.379Z,43.51
2018-09-15T14:40:44.605Z,44.25
2018-09-15T14:43:12.838Z,44.69
2018-09-15T14:45:41.420Z,44.40
2018-09-15T14:48:19.531Z,44.67
2018-09-15T14:51:06.496Z,44.46
2018-09-15T14:53:35.961Z,44.96
2018-09-15T14:56:04.356Z,44.76
2018-09-15T14:58:45.590Z,44.84
2018-09-15T15:01:27.834Z,45.01
2018-09-15T15:03:56.547Z,44.90
2018-09-15T15:06:24.752Z,43.98
2018-09-15T15:08:52.973Z,44.64
2018-09-15T15:11:21.801Z,44.26
2018-09-15T15:13:50.034Z,44.49
2018-09-15T15:16:18.313Z,44.34
2018-09-15T15:18:46.622Z,44.45
2018-09-15T15:21:14.902Z,44.49
2018-09-15T15:23:43.254Z,44.14
2018-09-15T15:26:12.482Z,44.53
2018-09-15T15:28:40.739Z,44.23
2018-09-15T15:31:08.996Z,44.50
2018-09-15T15:33:37.400Z,45.57
2018-09-15T15:36:07.042Z,45.53
2018-09-15T15:38:35.251Z,45.09
2018-09-15T15:41:04.639Z,44.82
2018-09-15T15:43:32.938Z,45.00
2018-09-15T15:46:01.142Z,45.26
2018-09-15T15:48:29.350Z,45.20
2018-09-15T15:50:58.318Z,45.94
2018-09-15T15:53:26.645Z,45.93
2018-09-15T15:55:54.849Z,46.33
2018-09-15T15:58:23.163Z,45.65
2018-09-15T16:00:51.586Z,46.17
2018-09-15T16:03:19.823Z,46.07
2018-09-15T16:05:48.065Z,46.71
2018-09-15T16:08:16.230Z,46.81
2018-09-15T16:10:44.536Z,46.97
2018-09-15T16:13:12.836Z,47.20
2018-09-15T16:15:41.109Z,48.12
2018-09-15T16:18:09.313Z,48.34
2018-09-15T16:20:37.556Z,48.84
2018-09-15T16:23:05.856Z,48.79
2018-09-15T16:25:34.137Z,49.08
2018-09-15T16:28:02.391Z,49.81
2018-09-15T16:30:31.119Z,48.79
2018-09-15T16:32:59.332Z,49.30
2018-09-15T16:35:27.479Z,48.08
2018-09-15T16:37:55.803Z,48.35
2018-09-15T16:40:23.981Z,47.62
2018-09-15T16:42:52.257Z,47.10
2018-09-15T16:45:20.462Z,47.11
2018-09-15T16:47:48.674Z,47.50
2018-09-15T16:50:16.891Z,48.00
2018-09-15T16:52:45.464Z,47.89
2018-09-15T16:55:13.763Z,48.02
2018-09-15T16:57:42.397Z,47.54
2018-09-15T17:00:10.563Z,48.04
2018-09-15T17:02:39.140Z,48.38
2018-09-15T17:05:14.688Z,48.27
2018-09-15T17:07:43.007Z,48.76
2018-09-15T17:10:11.280Z,48.75
2018-09-15T17:12:39.445Z,49.53
2018-09-15T17:15:08.246Z,49.39
2018-09-15T17:17:54.680Z,49.69
2018-09-15T17:20:23.140Z,50.45
2018-09-15T17:22:51.314Z,50.50
2018-09-15T17:25:19.659Z,50.36
2018-09-15T17:27:47.930Z,51.23
2018-09-15T17:30:16.159Z,51.11
2018-09-15T17:32:44.416Z,51.42
2018-09-15T17:35:12.656Z,51.30
2018-09-15T17:37:40.900Z,51.76
2018-09-15T17:40:09.184Z,51.74
2018-09-15T17:42:37.440Z,52.20
2018-09-15T17:45:05.623Z,51.96
2018-09-15T17:47:33.837Z,52.43
2018-09-15T17:50:02.033Z,53.19
2018-09-15T17:52:30.361Z,53.42
2018-09-15T17:54:58.594Z,53.46
2018-09-15T17:57:26.793Z,53.28
2018-09-15T17:59:55.049Z,53.04
2018-09-15T18:02:24.001Z,53.65
2018-09-15T18:04:52.155Z,53.19
2018-09-15T18:07:20.375Z,53.41
2018-09-15T18:09:48.668Z,53.50
2018-09-15T18:12:16.877Z,54.00
2018-09-15T18:14:45.079Z,54.41
2018-09-15T18:17:13.284Z,54.56
2018-09-15T18:19:41.756Z,54.57
2018-09-15T18:22:10.158Z,54.83
2018-09-15T18:24:38.559Z,55.43
2018-09-15T18:27:06.775Z,55.36
2018-09-15T18:29:34.923Z,55.04
2018-09-15T18:32:03.196Z,55.14
2018-09-15T18:34:31.414Z,55.00
2018-09-15T18:36:59.771Z,55.01
2018-09-15T18:39:28.527Z,55.92
2018-09-15T18:41:56.734Z,56.28
2018-09-15T18:44:24.896Z,56.48
2018-09-15T18:46:53.161Z,57.36
2018-09-15T18:49:21.424Z,57.50
2018-09-15T18:51:49.663Z,57.53
2018-09-15T18:54:18.098Z,57.85
2018-09-15T18:56:46.272Z,57.57
2018-09-15T18:59:15.000Z,57.73
2018-09-15T19:01:43.657Z,57.59
2018-09-15T19:04:12.086Z,58.45
2018-09-15T19:06:40.362Z,57.90
2018-09-15T19:09:10.740Z,58.10
2018-09-15T19:11:39.191Z,58.69
2018-09-15T19:14:07.748Z,58.94
2018-09-15T19:16:36.878Z,59.18
2018-09-15T19:19:06.378Z,58.92
2018-09-15T19:21:37.570Z,58.57
2018-09-15T19:24:05.808Z,59.05
2018-09-15T19:26:34.068Z,58.80
2018-09-15T19:29:02.706Z,59.21
2018-09-15T19:31:32.556Z,58.83
2018-09-15T19:34:00.792Z,58.92
2018-09-15T19:36:29.433Z,59.28
2018-09-15T19:38:57.756Z,59.26
2018-09-15T19:41:26.236Z,59.23
2018-09-15T19:43:56.047Z,59.25
2018-09-15T19:46:24.686Z,59.55
2018-09-15T19:48:52.960Z,60.63
2018-09-15T19:51:22.030Z,60.92
2018-09-15T19:53:52.382Z,60.88
2018-09-15T19:56:22.072Z,59.86
2018-09-15T19:58:50.261Z,60.16
2018-09-15T20:01:18.443Z,60.36
2018-09-15T20:03:47.052Z,62.09
2018-09-15T20:06:15.467Z,62.10
2018-09-15T20:08:43.784Z,63.03
2018-09-15T20:11:12.106Z,64.45
2018-09-15T20:13:40.340Z,66.24
2018-09-15T20:16:07.590Z,65.72
2018-09-15T20:18:34.856Z,66.90
2018-09-15T20:21:02.035Z,67.85
2018-09-15T20:23:30.294Z,67.98
2018-09-15T20:25:58.521Z,69.45
2018-09-15T20:28:26.739Z,71.14
2018-09-15T20:30:54.904Z,68.31
2018-09-15T20:33:23.300Z,70.31
2018-09-15T20:35:51.456Z,68.99
2018-09-15T20:38:19.641Z,69.82
2018-09-15T20:40:47.902Z,70.67
2018-09-15T20:43:16.081Z,69.28
2018-09-15T20:45:44.409Z,72.41
2018-09-15T20:48:13.042Z,73.07
2018-09-15T20:50:41.265Z,72.78
2018-09-15T20:53:09.532Z,73.07
2018-09-15T20:55:37.730Z,70.47
2018-09-15T20:58:05.942Z,70.90
2018-09-15T21:00:34.616Z,69.96
2018-09-15T21:03:02.824Z,72.08
2018-09-15T21:05:30.983Z,72.53
2018-09-15T21:07:59.125Z,72.03
2018-09-15T21:10:27.295Z,71.78
2018-09-15T21:12:55.443Z,72.82
2018-09-15T21:15:23.645Z,73.17
2018-09-15T21:17:51.843Z,74.52
2018-09-15T21:20:20.049Z,73.34
2018-09-15T21:22:48.332Z,73.77
2018-09-15T21:25:16.545Z,73.49
2018-09-15T21:27:44.825Z,73.48
2018-09-15T21:30:12.991Z,72.72
2018-09-15T21:32:41.197Z,73.35
2018-09-15T21:35:09.484Z,73.28
2018-09-15T21:37:37.877Z,74.07
2018-09-15T21:40:06.135Z,73.24
2018-09-15T21:42:34.310Z,73.37
2018-09-15T21:45:03.129Z,73.79
2018-09-15T21:47:31.604Z,74.15
2018-09-15T21:49:59.911Z,74.77
2018-09-15T21:52:28.066Z,75.12
2018-09-15T21:54:56.421Z,75.53
2018-09-15T21:57:24.790Z,74.72
2018-09-15T21:59:52.989Z,75.11
2018-09-15T22:02:22.931Z,75.29
2018-09-15T22:04:51.526Z,75.61
2018-09-15T22:07:19.811Z,74.85
2018-09-15T22:09:48.049Z,75.18
2018-09-15T22:12:16.432Z,75.12
2018-09-15T22:14:44.621Z,75.82
2018-09-15T22:17:12.771Z,75.57
2018-09-15T22:19:40.983Z,76.11
2018-09-15T22:22:09.212Z,76.34
2018-09-15T22:24:37.447Z,77.53
2018-09-15T22:27:05.863Z,77.54
2018-09-15T22:29:34.097Z,78.03
2018-09-15T22:32:02.286Z,77.77
2018-09-15T22:34:30.633Z,77.62
2018-09-15T22:36:58.755Z,78.38
2018-09-15T22:39:27.056Z,79.36
2018-09-15T22:41:55.244Z,79.86
2018-09-15T22:44:23.530Z,79.44
2018-09-15T22:46:51.707Z,79.62
2018-09-15T22:49:19.895Z,80.86
2018-09-15T22:51:48.048Z,81.10
2018-09-15T22:54:16.373Z,80.16
2018-09-15T22:56:44.572Z,79.80
2018-09-15T22:59:12.725Z,80.47
2018-09-15T23:01:40.919Z,80.29
2018-09-15T23:04:12.395Z,79.75
2018-09-15T23:06:40.536Z,79.86
2018-09-15T23:09:09.980Z,79.83
2018-09-15T23:11:38.140Z,80.88
2018-09-15T23:14:06.437Z,80.07
2018-09-15T23:16:34.660Z,80.57
2018-09-15T23:19:02.839Z,80.51
2018-09-15T23:21:30.985Z,79.77
2018-09-15T23:23:59.353Z,80.19
2018-09-15T23:26:27.502Z,79.78
2018-09-15T23:28:55.630Z,79.68
2018-09-15T23:31:23.895Z,80.34
2018-09-15T23:33:52.276Z,80.86
2018-09-15T23:36:20.459Z,80.68
2018-09-15T23:38:48.687Z,81.08
2018-09-15T23:41:16.909Z,80.94
2018-09-15T23:43:45.377Z,80.85
2018-09-15T23:46:13.514Z,81.04
2018-09-15T23:48:41.669Z,81.08
2018-09-15T23:51:09.916Z,81.41
2018-09-15T23:53:38.218Z,81.90
2018-09-15T23:56:06.505Z,82.05
2018-09-15T23:58:34.794Z,81.75
